Time;durP1;ratioP1;P1;durP2;ratioP2;P2;SDS_P1;SDS_P2;PMS_P1;PMS_P2;Temp;Humidity;BMP_temperature;BMP_pressure;BME280_temperature;BME280_humidity;BME280_pressure;Samples;Min_cycle;Max_cycle;Signal;HPM_P1;HPM_P2
2023/01/02 00:01:28;;;;;;;15.00;4.17;;;9.80;95.40;;;;;;5095168;27;20406;-91
2023/01/02 00:03:58;;;;;;;14.23;4.03;;;9.60;95.30;;;;;;5095547;27;20471;-90
2023/01/02 00:06:24;;;;;;;13.27;4.18;;;9.60;95.30;;;;;;5111604;27;20398;-91
2023/01/02 00:08:50;;;;;;;11.38;3.58;;;9.60;95.30;;;;;;5112289;27;20762;-89
2023/01/02 00:11:15;;;;;;;11.48;4.47;;;9.80;95.40;;;;;;5093893;27;20395;-91
2023/01/02 00:13:41;;;;;;;9.48;3.58;;;9.70;95.40;;;;;;5112833;27;20438;-90
2023/01/02 00:16:07;;;;;;;18.00;5.33;;;9.60;95.40;;;;;;5094687;27;20404;-90
2023/01/02 00:18:33;;;;;;;14.00;5.05;;;9.70;95.40;;;;;;5094695;27;20455;-91
2023/01/02 00:21:04;;;;;;;14.32;5.60;;;9.70;95.70;;;;;;5094957;27;20403;-90
2023/01/02 00:23:30;;;;;;;12.95;5.68;;;9.80;95.50;;;;;;5110803;27;20423;-90
2023/01/02 00:25:55;;;;;;;13.75;6.60;;;9.70;95.90;;;;;;5094584;27;20399;-90
2023/01/02 00:28:21;;;;;;;16.58;6.72;;;9.70;95.70;;;;;;5094205;27;20630;-91
2023/01/02 00:30:47;;;;;;;17.63;7.25;;;9.70;95.70;;;;;;5095027;27;20409;-91
2023/01/02 00:33:13;;;;;;;15.73;6.80;;;9.80;95.70;;;;;;5128223;27;20407;-91
2023/01/02 00:35:39;;;;;;;13.50;6.65;;;9.70;95.80;;;;;;5094098;27;20402;-90
2023/01/02 00:38:05;;;;;;;12.73;6.93;;;9.70;95.80;;;;;;5096798;27;20509;-90
2023/01/02 00:40:31;;;;;;;14.80;7.40;;;9.80;95.90;;;;;;5131222;27;20393;-90
2023/01/02 00:42:56;;;;;;;11.33;6.70;;;9.80;95.90;;;;;;5114713;27;20408;-91
2023/01/02 00:45:22;;;;;;;14.55;7.55;;;9.80;95.90;;;;;;5113729;27;20751;-90
2023/01/02 00:47:47;;;;;;;13.63;7.40;;;10.20;96.00;;;;;;5114729;27;20876;-90
2023/01/02 00:50:13;;;;;;;14.40;7.50;;;9.80;96.00;;;;;;5131046;27;20404;-89
2023/01/02 00:52:39;;;;;;;18.00;8.70;;;9.80;96.00;;;;;;5114493;27;20397;-90
2023/01/02 00:55:04;;;;;;;18.40;9.73;;;9.90;96.10;;;;;;5113456;27;20396;-89
2023/01/02 00:57:30;;;;;;;16.38;9.10;;;9.90;96.10;;;;;;5130554;27;20406;-88
2023/01/02 00:59:56;;;;;;;17.55;10.77;;;10.00;96.10;;;;;;5114261;27;20401;-90
2023/01/02 01:02:21;;;;;;;16.33;10.47;;;9.90;96.10;;;;;;5113250;27;20488;-90
2023/01/02 01:04:47;;;;;;;19.60;10.95;;;9.90;96.10;;;;;;5114355;27;20409;-90
2023/01/02 01:07:12;;;;;;;20.17;12.32;;;9.90;96.20;;;;;;5113081;27;20401;-91
2023/01/02 01:09:38;;;;;;;24.70;14.27;;;9.90;96.20;;;;;;5114221;27;20432;-90
2023/01/02 01:12:04;;;;;;;21.40;13.93;;;10.00;96.30;;;;;;5112789;27;20397;-89
2023/01/02 01:14:29;;;;;;;18.48;13.30;;;10.00;96.30;;;;;;5131272;27;20401;-89
2023/01/02 01:16:55;;;;;;;19.73;13.50;;;10.00;96.30;;;;;;5113271;27;20866;-89
2023/01/02 01:19:21;;;;;;;20.58;13.75;;;10.10;96.40;;;;;;5113326;27;21249;-89
2023/01/02 01:21:46;;;;;;;19.63;13.00;;;10.10;96.50;;;;;;5113841;27;20401;-89
2023/01/02 01:24:13;;;;;;;19.53;13.53;;;10.10;96.50;;;;;;5112944;27;20463;-91
2023/01/02 01:26:39;;;;;;;20.42;13.43;;;10.20;96.60;;;;;;5114120;27;20844;-90
2023/01/02 01:29:05;;;;;;;19.80;13.07;;;10.20;96.60;;;;;;5112584;27;20389;-90
2023/01/02 01:31:30;;;;;;;15.83;11.80;;;10.20;96.60;;;;;;5130603;27;20409;-89
2023/01/02 01:33:56;;;;;;;19.83;12.80;;;10.30;96.60;;;;;;5113233;27;20393;-89
2023/01/02 01:36:23;;;;;;;18.30;12.40;;;10.30;96.50;;;;;;5130383;27;20409;-89
2023/01/02 01:38:49;;;;;;;18.10;12.38;;;10.50;96.60;;;;;;5113193;27;20409;-88
2023/01/02 01:41:18;;;;;;;19.65;12.30;;;10.40;96.60;;;;;;5113109;27;20774;-89
2023/01/02 01:43:55;;;;;;;17.40;11.82;;;10.40;96.60;;;;;;5130664;27;20768;-91
2023/01/02 01:46:39;;;;;;;22.85;13.30;;;10.50;96.60;;;;;;5112660;27;20404;-90
2023/01/02 01:49:14;;;;;;;19.45;12.50;;;10.50;96.60;;;;;;5130497;27;20488;-88
2023/01/02 01:51:46;;;;;;;13.70;10.60;;;10.50;96.60;;;;;;5130509;27;20744;-89
2023/01/02 01:54:15;;;;;;;18.35;12.13;;;10.50;96.60;;;;;;5129936;27;20389;-90
2023/01/02 01:56:50;;;;;;;19.20;12.07;;;10.60;96.60;;;;;;5113426;27;20916;-90
2023/01/02 01:59:17;;;;;;;16.70;12.00;;;10.60;96.70;;;;;;5112781;27;20440;-92
2023/01/02 02:01:44;;;;;;;18.77;11.23;;;10.90;96.70;;;;;;5131702;27;20483;-89
2023/01/02 02:04:11;;;;;;;16.77;11.82;;;10.60;96.50;;;;;;5112395;27;20890;-89
2023/01/02 02:06:37;;;;;;;17.48;11.68;;;10.40;96.40;;;;;;5130227;27;20435;-90
2023/01/02 02:09:16;;;;;;;20.83;12.70;;;10.60;96.50;;;;;;5129955;27;20421;-90
2023/01/02 02:11:42;;;;;;;20.30;12.27;;;10.70;96.50;;;;;;5112564;27;20414;-90
2023/01/02 02:14:08;;;;;;;21.25;13.60;;;11.00;96.50;;;;;;5113370;27;20393;-90
2023/01/02 02:16:47;;;;;;;23.33;13.23;;;10.70;96.50;;;;;;5112456;27;20415;-90
2023/01/02 02:19:40;;;;;;;19.00;13.45;;;10.70;96.50;;;;;;5113551;27;20453;-89
2023/01/02 02:22:19;;;;;;;21.35;14.40;;;10.70;96.40;;;;;;5112969;27;20418;-89
2023/01/02 02:25:04;;;;;;;18.25;14.05;;;10.70;96.50;;;;;;5129403;27;20465;-90
2023/01/02 02:27:51;;;;;;;21.70;15.93;;;10.70;96.50;;;;;;5113665;27;20777;-90
2023/01/02 02:30:20;;;;;;;20.70;15.40;;;10.80;96.60;;;;;;5112371;27;20444;-88
2023/01/02 02:32:48;;;;;;;23.37;17.80;;;10.80;96.50;;;;;;5112316;27;20397;-89
2023/01/02 02:35:42;;;;;;;26.45;18.88;;;10.80;96.50;;;;;;5129657;27;20931;-88
2023/01/02 02:38:21;;;;;;;28.00;20.92;;;10.80;96.60;;;;;;5128700;27;20914;-90
2023/01/02 02:41:03;;;;;;;28.80;20.98;;;10.80;96.60;;;;;;5112522;27;20397;-90
2023/01/02 02:43:46;;;;;;;28.53;22.00;;;10.80;96.50;;;;;;5114216;27;20448;-89
2023/01/02 02:46:24;;;;;;;34.65;24.48;;;10.90;96.60;;;;;;5115373;27;20412;-89
2023/01/02 02:49:02;;;;;;;34.45;25.30;;;10.90;96.60;;;;;;5116147;27;20397;-88
2023/01/02 02:52:04;;;;;;;35.22;25.48;;;10.90;96.60;;;;;;5115314;27;20905;-88
2023/01/02 02:54:39;;;;;;;38.97;27.13;;;10.90;96.60;;;;;;5132559;27;20476;-89
2023/01/02 02:57:07;;;;;;;41.08;27.92;;;11.00;96.60;;;;;;5115529;27;21206;-89
2023/01/02 02:59:35;;;;;;;35.97;26.85;;;11.00;96.60;;;;;;5114566;27;20401;-88
2023/01/02 03:02:02;;;;;;;38.10;26.60;;;11.10;96.60;;;;;;5115901;27;20411;-89
2023/01/02 03:04:27;;;;;;;40.53;27.83;;;11.00;96.60;;;;;;5115249;27;20440;-89
2023/01/02 03:07:12;;;;;;;39.43;27.43;;;11.10;96.60;;;;;;5115297;27;20432;-88
2023/01/02 03:10:10;;;;;;;40.33;28.30;;;11.10;96.60;;;;;;5115595;27;20970;-88
2023/01/02 03:13:17;;;;;;;39.33;28.00;;;11.10;96.60;;;;;;5114935;27;20759;-90
2023/01/02 03:16:06;;;;;;;32.92;26.25;;;11.10;96.60;;;;;;5014101;28;20895;-89
2023/01/02 03:18:42;;;;;;;34.03;25.45;;;11.10;96.60;;;;;;5014235;28;21167;-90
2023/01/02 03:21:33;;;;;;;39.30;27.15;;;11.20;96.60;;;;;;5102250;27;20797;-89
2023/01/02 03:24:04;;;;;;;34.90;26.65;;;11.30;96.60;;;;;;5103542;27;20425;-89
2023/01/02 03:26:33;;;;;;;34.95;25.08;;;11.20;96.60;;;;;;5114685;27;20438;-88
2023/01/02 03:29:06;;;;;;;31.23;23.80;;;11.20;96.50;;;;;;5114843;27;20428;-89
2023/01/02 03:31:35;;;;;;;31.98;23.35;;;11.10;96.50;;;;;;5132280;27;20408;-89
2023/01/02 03:34:08;;;;;;;31.63;23.33;;;11.30;96.50;;;;;;5113983;27;20422;-88
2023/01/02 03:36:38;;;;;;;29.13;22.40;;;11.30;96.50;;;;;;5132106;27;20393;-89
2023/01/02 03:39:32;;;;;;;33.22;23.63;;;11.30;96.50;;;;;;5114215;27;20393;-88
2023/01/02 03:42:03;;;;;;;29.98;22.38;;;11.30;96.40;;;;;;5111286;27;20444;-88
2023/01/02 03:44:36;;;;;;;29.10;21.55;;;11.40;96.50;;;;;;5110763;27;20422;-88
2023/01/02 03:47:16;;;;;;;27.10;22.30;;;11.30;96.40;;;;;;5110663;27;20398;-88
2023/01/02 03:49:46;;;;;;;28.35;22.08;;;11.30;96.40;;;;;;5111264;27;20397;-88
2023/01/02 03:52:11;;;;;;;31.63;23.95;;;11.40;96.40;;;;;;5127218;27;20403;-90
2023/01/02 03:54:37;;;;;;;32.57;24.13;;;11.40;96.40;;;;;;5110540;27;20400;-88
2023/01/02 03:57:19;;;;;;;30.80;23.47;;;11.40;96.40;;;;;;5110559;27;20911;-88
2023/01/02 04:00:00;;;;;;;34.30;24.02;;;11.40;96.40;;;;;;5110088;27;20443;-89
2023/01/02 04:02:49;;;;;;;34.42;24.40;;;11.40;96.40;;;;;;5111257;27;20463;-88
2023/01/02 04:05:39;;;;;;;31.65;23.42;;;11.40;96.40;;;;;;5109726;27;20426;-89
2023/01/02 04:08:27;;;;;;;40.58;26.48;;;11.40;96.30;;;;;;5110876;27;20411;-89
2023/01/02 04:10:56;;;;;;;31.55;24.00;;;11.40;96.40;;;;;;5110329;27;20456;-89
2023/01/02 04:13:48;;;;;;;35.70;26.20;;;11.40;96.40;;;;;;5110372;27;20415;-89
2023/01/02 04:16:18;;;;;;;34.35;25.67;;;11.40;96.50;;;;;;5103465;27;20394;-89
2023/01/02 04:18:50;;;;;;;37.22;26.52;;;11.30;96.40;;;;;;5110982;27;20418;-89
2023/01/02 04:21:20;;;;;;;41.30;26.57;;;11.40;96.40;;;;;;5110640;27;20502;-90
2023/01/02 04:24:02;;;;;;;39.47;26.85;;;11.40;96.50;;;;;;5127736;27;20940;-90
2023/01/02 04:26:34;;;;;;;43.90;28.00;;;11.50;96.50;;;;;;5110300;27;20402;-89
2023/01/02 04:29:00;;;;;;;36.60;26.15;;;11.40;96.50;;;;;;5128774;27;20490;-89
2023/01/02 04:31:41;;;;;;;39.63;26.35;;;11.40;96.50;;;;;;5110129;27;20405;-89
2023/01/02 04:34:11;;;;;;;37.10;25.83;;;11.40;96.50;;;;;;5127850;27;20430;-90
2023/01/02 04:36:39;;;;;;;40.30;26.85;;;11.40;96.50;;;;;;5110709;27;20401;-89
2023/01/02 04:39:05;;;;;;;42.92;27.25;;;11.50;96.60;;;;;;5109945;27;20473;-89
2023/01/02 04:41:32;;;;;;;40.28;26.77;;;11.40;96.60;;;;;;5128039;27;20410;-90
2023/01/02 04:43:59;;;;;;;36.80;25.77;;;11.40;96.60;;;;;;5109862;27;20462;-90
2023/01/02 04:46:26;;;;;;;37.38;25.52;;;11.40;96.60;;;;;;5127428;27;20519;-89
2023/01/02 04:48:53;;;;;;;35.00;25.58;;;11.40;96.60;;;;;;5109904;27;20418;-88
2023/01/02 04:51:19;;;;;;;35.60;25.27;;;11.60;96.70;;;;;;5109702;27;20399;-89
2023/01/02 04:53:49;;;;;;;42.67;27.85;;;11.40;96.60;;;;;;5109534;27;20418;-90
2023/01/02 04:56:15;;;;;;;46.75;28.77;;;11.40;96.70;;;;;;5108952;27;20411;-88
2023/01/02 04:58:42;;;;;;;40.20;26.65;;;11.40;96.60;;;;;;5110055;27;20889;-88
2023/01/02 05:01:09;;;;;;;41.45;26.75;;;11.40;96.70;;;;;;5125744;27;20397;-88
2023/01/02 05:03:43;;;;;;;40.38;25.95;;;11.60;96.70;;;;;;5110301;27;20454;-88
2023/01/02 05:06:09;;;;;;;41.80;26.17;;;11.40;96.70;;;;;;5108210;27;20406;-88
2023/01/02 05:08:35;;;;;;;39.95;26.17;;;11.40;96.70;;;;;;5126442;27;20391;-88
2023/01/02 05:11:10;;;;;;;48.90;27.70;;;11.50;96.70;;;;;;5126993;27;20886;-89
2023/01/02 05:13:35;;;;;;;51.28;28.30;;;11.40;96.90;;;;;;5126244;27;20786;-89
2023/01/02 05:16:02;;;;;;;45.43;26.63;;;11.50;96.80;;;;;;5109967;27;20827;-89
2023/01/02 05:18:28;;;;;;;35.75;23.92;;;11.40;96.80;;;;;;5109080;27;20443;-88
2023/01/02 05:21:03;;;;;;;35.85;23.42;;;11.30;96.80;;;;;;5110009;27;20780;-89
2023/01/02 05:23:47;;;;;;;43.95;25.67;;;11.30;96.80;;;;;;5109869;27;20438;-89
2023/01/02 05:26:14;;;;;;;41.38;25.23;;;11.70;96.90;;;;;;5126764;27;20756;-90
2023/01/02 05:28:39;;;;;;;38.22;24.17;;;11.30;96.80;;;;;;5127013;27;20445;-88
2023/01/02 05:31:05;;;;;;;44.85;26.40;;;11.30;96.80;;;;;;5109047;27;20427;-90
2023/01/02 05:33:31;;;;;;;45.15;25.95;;;11.30;96.80;;;;;;5126816;27;20418;-88
2023/01/02 05:35:56;;;;;;;40.93;24.73;;;11.30;96.80;;;;;;5109045;27;20403;-88
2023/01/02 05:38:22;;;;;;;48.03;26.30;;;11.30;96.80;;;;;;5109910;27;20420;-89
2023/01/02 05:40:48;;;;;;;36.50;23.27;;;11.30;96.80;;;;;;5108886;27;20434;-89
2023/01/02 05:43:13;;;;;;;33.67;22.60;;;11.30;96.70;;;;;;5109242;27;20510;-89
2023/01/02 05:45:39;;;;;;;33.55;22.65;;;11.30;96.70;;;;;;5113336;27;20445;-90
2023/01/02 05:48:05;;;;;;;30.57;21.53;;;11.40;96.70;;;;;;5112574;27;20420;-89
2023/01/02 05:50:30;;;;;;;35.47;23.33;;;11.30;96.60;;;;;;5112701;27;20420;-89
2023/01/02 05:52:56;;;;;;;30.83;21.85;;;11.50;96.70;;;;;;5112491;27;20425;-90
2023/01/02 05:55:21;;;;;;;34.67;22.53;;;11.30;96.90;;;;;;5130727;27;20404;-89
2023/01/02 05:57:47;;;;;;;43.90;24.75;;;11.20;96.50;;;;;;5112387;27;20937;-90
2023/01/02 06:00:13;;;;;;;33.80;23.57;;;11.20;96.60;;;;;;5112931;27;20470;-89
2023/01/02 06:02:39;;;;;;;42.90;25.60;;;11.20;96.60;;;;;;5112857;27;20435;-89
2023/01/02 06:05:05;;;;;;;36.37;24.30;;;11.20;96.60;;;;;;5129376;27;20448;-90
2023/01/02 06:07:31;;;;;;;39.30;25.10;;;11.20;96.60;;;;;;5112830;27;20497;-90
2023/01/02 06:09:56;;;;;;;47.63;25.60;;;11.20;96.60;;;;;;5113085;27;20437;-91
2023/01/02 06:12:22;;;;;;;44.67;25.38;;;11.30;96.60;;;;;;5130588;27;20752;-92
2023/01/02 06:14:47;;;;;;;30.30;22.03;;;11.20;96.60;;;;;;5112412;27;20478;-89
2023/01/02 06:17:13;;;;;;;39.03;23.60;;;11.20;96.50;;;;;;5133218;27;20824;-89
2023/01/02 06:19:38;;;;;;;37.67;23.13;;;11.10;96.50;;;;;;5116809;27;20401;-90
2023/01/02 06:22:04;;;;;;;41.03;24.75;;;11.10;96.50;;;;;;5133661;27;20389;-88
2023/01/02 06:24:30;;;;;;;39.27;23.03;;;11.10;96.60;;;;;;5116894;27;20451;-90
2023/01/02 06:26:55;;;;;;;29.77;17.13;;;11.10;96.50;;;;;;5116687;27;20492;-89
2023/01/02 06:29:21;;;;;;;32.55;18.33;;;11.00;96.20;;;;;;5117655;27;20404;-90
2023/01/02 06:31:46;;;;;;;39.50;19.07;;;10.80;96.00;;;;;;5111053;27;20426;-91
2023/01/02 06:34:12;;;;;;;42.92;18.65;;;10.80;96.00;;;;;;5097031;27;20414;-91
2023/01/02 06:36:38;;;;;;;45.87;17.40;;;10.70;95.70;;;;;;5096671;27;20395;-93
2023/01/02 06:39:03;;;;;;;43.10;15.70;;;10.50;95.30;;;;;;5096951;27;20431;-91
2023/01/02 06:41:30;;;;;;;22.17;10.13;;;10.20;95.40;;;;;;5103212;27;20429;-90
2023/01/02 06:43:55;;;;;;;27.17;11.32;;;10.00;95.60;;;;;;5096516;27;20427;-91
2023/01/02 06:46:22;;;;;;;38.75;11.82;;;9.80;96.00;;;;;;5097320;27;20405;-92
2023/01/02 06:48:48;;;;;;;17.52;5.43;;;9.60;96.20;;;;;;5097897;27;21409;-93
2023/01/02 06:51:17;;;;;;;16.33;5.43;;;9.70;96.10;;;;;;5114992;27;20861;-91
2023/01/02 06:53:44;;;;;;;7.13;3.40;;;9.30;96.10;;;;;;5107669;27;20466;-92
2023/01/02 06:56:11;;;;;;;25.88;6.35;;;9.50;96.30;;;;;;5109232;27;20438;-93
2023/01/02 06:58:39;;;;;;;15.38;5.95;;;9.10;96.50;;;;;;5108191;27;20393;-95
2023/01/02 07:01:12;;;;;;;16.40;5.97;;;9.10;96.60;;;;;;5117021;27;20411;-92
2023/01/02 07:03:37;;;;;;;9.30;3.83;;;8.90;96.60;;;;;;5099910;27;20410;-91
2023/01/02 07:06:09;;;;;;;3.85;0.90;;;9.10;96.70;;;;;;5095604;27;20994;-94
2023/01/02 07:08:34;;;;;;;3.53;0.60;;;8.70;96.40;;;;;;5096536;27;20477;-92
2023/01/02 07:11:14;;;;;;;3.30;0.50;;;8.70;96.50;;;;;;5103118;27;20414;-93
2023/01/02 07:13:41;;;;;;;4.10;0.52;;;8.60;96.50;;;;;;5112217;27;20397;-93
2023/01/02 07:16:09;;;;;;;3.55;0.60;;;8.60;96.50;;;;;;5134035;27;20855;-93
2023/01/02 07:18:35;;;;;;;3.00;0.70;;;8.60;96.60;;;;;;5103791;27;20830;-92
2023/01/02 07:21:01;;;;;;;5.28;0.88;;;8.50;96.60;;;;;;5112943;27;20431;-92
2023/01/02 07:23:27;;;;;;;5.40;0.98;;;8.50;96.80;;;;;;5103896;27;20439;-93
2023/01/02 07:25:54;;;;;;;3.30;0.95;;;8.50;96.80;;;;;;5111538;27;20401;-92
2023/01/02 07:28:20;;;;;;;6.28;1.60;;;8.40;96.80;;;;;;5099078;27;20406;-93
2023/01/02 07:30:46;;;;;;;7.85;2.35;;;8.30;96.70;;;;;;5099313;27;20912;-94
2023/01/02 07:33:11;;;;;;;4.90;1.65;;;8.50;96.90;;;;;;5099148;27;20392;-92
2023/01/02 07:35:37;;;;;;;5.40;1.90;;;8.50;96.70;;;;;;5114339;27;20413;-93
2023/01/02 07:38:03;;;;;;;5.93;1.90;;;8.40;96.80;;;;;;5096107;27;20496;-92
2023/01/02 07:40:28;;;;;;;10.25;2.70;;;8.40;96.80;;;;;;5095196;27;20402;-91
2023/01/02 07:42:54;;;;;;;5.45;1.30;;;8.60;96.80;;;;;;5101402;27;20391;-92
2023/01/02 07:45:20;;;;;;;6.07;1.33;;;8.60;96.70;;;;;;5091406;28;20431;-90
2023/01/02 07:47:45;;;;;;;8.15;3.90;;;8.40;96.70;;;;;;5092784;28;20416;-90
2023/01/02 07:50:11;;;;;;;3.43;0.83;;;8.40;97.10;;;;;;5091682;28;20453;-91
2023/01/02 07:52:37;;;;;;;3.90;0.90;;;8.40;96.70;;;;;;5092534;28;20404;-90
2023/01/02 07:55:02;;;;;;;6.13;1.23;;;8.50;96.70;;;;;;5092125;28;20404;-92
2023/01/02 07:57:30;;;;;;;5.55;1.40;;;8.40;96.70;;;;;;5091649;28;20404;-91
2023/01/02 07:59:56;;;;;;;7.32;1.65;;;8.40;96.70;;;;;;5109545;28;20725;-90
2023/01/02 08:02:21;;;;;;;4.90;1.00;;;8.40;96.90;;;;;;5091286;28;20415;-91
2023/01/02 08:04:47;;;;;;;5.50;1.13;;;8.60;96.80;;;;;;5109394;28;20428;-91
2023/01/02 08:07:12;;;;;;;5.50;1.00;;;8.40;96.60;;;;;;5108044;28;20453;-91
2023/01/02 08:09:38;;;;;;;6.30;1.08;;;8.50;96.80;;;;;;5092521;28;20520;-91
2023/01/02 08:12:04;;;;;;;7.95;1.23;;;8.50;96.90;;;;;;5091332;28;20491;-91
2023/01/02 08:14:30;;;;;;;5.83;1.40;;;8.60;96.80;;;;;;5092276;28;20806;-91
2023/01/02 08:16:55;;;;;;;7.23;1.63;;;8.50;96.90;;;;;;5091707;28;20452;-90
2023/01/02 08:19:21;;;;;;;8.85;1.70;;;8.50;96.60;;;;;;5091566;28;20910;-91
2023/01/02 08:21:46;;;;;;;5.87;1.70;;;8.60;96.70;;;;;;5091639;28;20407;-90
2023/01/02 08:24:12;;;;;;;7.70;1.80;;;8.50;96.70;;;;;;5090779;28;20424;-90
2023/01/02 08:26:38;;;;;;;10.68;2.40;;;8.90;96.70;;;;;;5092281;28;20405;-91
2023/01/02 08:29:03;;;;;;;7.97;2.00;;;8.50;96.70;;;;;;5091072;28;20441;-90
2023/01/02 08:31:29;;;;;;;7.53;2.00;;;8.60;96.70;;;;;;5092104;28;20465;-90
2023/01/02 08:33:55;;;;;;;7.63;2.63;;;8.60;96.70;;;;;;5108505;28;20838;-91
2023/01/02 08:36:20;;;;;;;8.77;2.53;;;8.60;96.60;;;;;;5091002;28;20448;-91
2023/01/02 08:38:46;;;;;;;7.78;1.80;;;8.70;96.70;;;;;;5108498;28;20408;-90
2023/01/02 08:41:12;;;;;;;7.25;2.22;;;8.80;96.60;;;;;;5090908;28;20411;-90
2023/01/02 08:43:37;;;;;;;7.43;2.10;;;8.80;96.60;;;;;;5091363;28;20521;-91
2023/01/02 08:46:05;;;;;;;8.43;2.60;;;8.60;96.50;;;;;;5090261;28;20490;-90
2023/01/02 08:48:31;;;;;;;9.02;3.72;;;8.60;96.50;;;;;;5091865;28;20989;-90
2023/01/02 08:50:56;;;;;;;8.25;3.53;;;8.60;96.60;;;;;;5090801;28;20407;-90
2023/01/02 08:53:22;;;;;;;11.27;4.00;;;8.50;96.50;;;;;;5091087;28;20910;-92
2023/01/02 08:55:48;;;;;;;8.80;3.97;;;8.80;97.00;;;;;;5091687;28;20396;-91
2023/01/02 08:58:14;;;;;;;9.65;3.85;;;8.70;96.60;;;;;;5090605;28;20406;-91
2023/01/02 09:00:39;;;;;;;9.63;3.97;;;8.70;96.60;;;;;;5091075;28;20408;-89
2023/01/02 09:03:05;;;;;;;10.80;4.10;;;8.90;96.50;;;;;;5089826;28;20917;-90
2023/01/02 09:05:30;;;;;;;11.33;4.10;;;8.70;96.40;;;;;;5090648;28;20435;-89
2023/01/02 09:07:57;;;;;;;13.07;4.50;;;8.70;96.40;;;;;;5089484;28;20420;-90
2023/01/02 09:10:23;;;;;;;12.57;3.90;;;8.70;96.40;;;;;;5090966;28;20400;-90
2023/01/02 09:12:48;;;;;;;11.47;4.13;;;8.70;96.30;;;;;;5106851;28;20401;-91
2023/01/02 09:15:14;;;;;;;13.43;4.03;;;8.70;96.40;;;;;;5090180;28;20453;-91
2023/01/02 09:17:40;;;;;;;14.65;4.43;;;8.80;96.40;;;;;;5090620;28;20401;-89
2023/01/02 09:20:06;;;;;;;12.90;4.57;;;8.80;96.40;;;;;;5089731;28;20454;-90
2023/01/02 09:22:31;;;;;;;15.02;5.18;;;8.80;96.50;;;;;;5107191;28;20432;-91
2023/01/02 09:24:57;;;;;;;11.87;4.57;;;8.80;96.30;;;;;;5089454;28;20428;-91
2023/01/02 09:27:23;;;;;;;14.52;5.28;;;8.80;96.30;;;;;;5090544;28;20423;-90
2023/01/02 09:29:48;;;;;;;17.50;5.78;;;8.90;96.30;;;;;;5089609;28;20397;-89
2023/01/02 09:32:14;;;;;;;14.23;5.77;;;8.90;96.40;;;;;;5107147;28;20420;-89
2023/01/02 09:34:40;;;;;;;17.48;5.50;;;8.90;96.20;;;;;;5090233;28;20399;-90
2023/01/02 09:37:05;;;;;;;14.20;4.28;;;8.90;96.30;;;;;;5089739;28;20393;-89
2023/01/02 09:39:31;;;;;;;15.30;4.80;;;8.90;96.20;;;;;;5090759;28;20431;-91
2023/01/02 09:41:59;;;;;;;19.70;4.97;;;8.90;96.30;;;;;;5089957;28;20401;-92
2023/01/02 09:44:34;;;;;;;15.63;4.30;;;8.90;96.30;;;;;;5107057;28;20429;-89
2023/01/02 09:47:07;;;;;;;11.63;3.50;;;8.90;96.40;;;;;;5089444;28;20404;-91
2023/01/02 09:49:47;;;;;;;11.88;3.90;;;8.90;96.40;;;;;;5090247;28;20954;-90
2023/01/02 09:52:20;;;;;;;8.02;2.70;;;8.90;96.50;;;;;;5106567;28;20405;-90
2023/01/02 09:54:46;;;;;;;8.27;2.20;;;8.90;96.30;;;;;;5089759;28;20396;-89
2023/01/02 09:57:26;;;;;;;6.20;2.40;;;8.90;96.20;;;;;;5090280;28;20887;-89
2023/01/02 10:00:17;;;;;;;9.00;2.75;;;8.90;96.30;;;;;;5088786;28;20425;-90
2023/01/02 10:03:15;;;;;;;6.22;2.50;;;8.90;96.40;;;;;;5106714;28;20496;-89
2023/01/02 10:05:50;;;;;;;5.65;2.60;;;9.00;96.40;;;;;;5089290;28;20893;-89
2023/01/02 10:08:36;;;;;;;5.10;1.67;;;9.00;96.30;;;;;;5091909;28;20456;-89
2023/01/02 10:11:22;;;;;;;5.72;2.15;;;9.00;96.10;;;;;;5085334;28;20865;-89
2023/01/02 10:14:04;;;;;;;4.83;1.00;;;9.00;96.20;;;;;;5109397;28;20418;-89
2023/01/02 10:16:40;;;;;;;4.97;0.98;;;8.90;95.90;;;;;;5108867;28;20391;-92
2023/01/02 10:19:20;;;;;;;4.25;1.35;;;9.00;96.00;;;;;;5090838;28;20903;-90
2023/01/02 10:21:48;;;;;;;5.67;1.80;;;8.90;96.10;;;;;;5088770;28;21080;-91
2023/01/02 10:24:21;;;;;;;5.13;2.13;;;8.90;96.10;;;;;;5107140;28;20424;-90
2023/01/02 10:26:52;;;;;;;7.43;2.38;;;8.90;96.10;;;;;;5116404;28;20429;-90
2023/01/02 10:29:28;;;;;;;9.25;3.22;;;9.00;96.10;;;;;;5101502;28;20400;-93
2023/01/02 10:32:04;;;;;;;6.18;2.17;;;9.00;96.20;;;;;;5110642;28;20399;-92
2023/01/02 10:34:58;;;;;;;4.90;2.20;;;9.00;96.10;;;;;;5104312;28;20413;-90
2023/01/02 10:37:25;;;;;;;7.85;2.40;;;9.00;96.00;;;;;;5104406;28;20403;-90
2023/01/02 10:39:51;;;;;;;6.07;2.08;;;9.00;96.10;;;;;;5111170;28;20408;-91
2023/01/02 10:42:18;;;;;;;5.13;1.92;;;9.00;96.10;;;;;;5089097;28;20404;-90
2023/01/02 10:44:45;;;;;;;7.30;2.58;;;9.00;96.00;;;;;;5094839;28;20783;-91
2023/01/02 10:47:12;;;;;;;7.85;2.70;;;9.10;96.20;;;;;;5091770;28;20413;-90
2023/01/02 10:49:40;;;;;;;5.72;2.58;;;9.10;96.10;;;;;;5095634;28;20425;-90
2023/01/02 10:52:13;;;;;;;6.10;2.83;;;9.00;96.00;;;;;;5109517;28;20398;-91
2023/01/02 10:54:53;;;;;;;5.88;2.47;;;9.00;95.90;;;;;;5107153;28;20399;-89
2023/01/02 10:57:33;;;;;;;4.85;1.63;;;8.90;95.90;;;;;;5089171;28;20470;-91
2023/01/02 11:00:00;;;;;;;7.25;2.13;;;8.90;95.90;;;;;;5088377;28;20457;-89
2023/01/02 11:02:29;;;;;;;6.68;2.78;;;8.90;95.80;;;;;;5089089;28;20405;-90
2023/01/02 11:05:00;;;;;;;8.30;2.70;;;8.80;95.80;;;;;;5089857;28;20546;-90
2023/01/02 11:07:30;;;;;;;5.97;1.60;;;8.80;96.00;;;;;;5109777;28;20408;-91
2023/01/02 11:09:56;;;;;;;9.05;2.40;;;8.80;95.80;;;;;;5092413;28;20445;-90
2023/01/02 11:12:22;;;;;;;8.60;1.85;;;9.00;95.90;;;;;;5091323;28;20495;-90
2023/01/02 11:14:49;;;;;;;9.20;1.88;;;8.90;95.90;;;;;;5092149;28;20412;-92
2023/01/02 11:17:22;;;;;;;7.50;2.03;;;8.80;95.80;;;;;;5091605;28;20925;-90
2023/01/02 11:19:53;;;;;;;8.40;1.90;;;8.70;95.90;;;;;;5092790;28;20412;-91
2023/01/02 11:22:23;;;;;;;10.32;2.28;;;8.70;96.00;;;;;;5091748;28;20411;-90
2023/01/02 11:25:04;;;;;;;7.10;2.00;;;8.70;96.10;;;;;;5092670;28;20435;-91
2023/01/02 11:27:36;;;;;;;6.07;1.27;;;8.90;96.30;;;;;;5106938;27;20413;-90
2023/01/02 11:30:05;;;;;;;7.35;1.38;;;9.30;96.30;;;;;;5101823;28;20778;-94
2023/01/02 11:32:39;;;;;;;7.53;1.30;;;9.40;95.50;;;;;;5092444;28;20404;-91
2023/01/02 11:35:29;;;;;;;6.10;1.45;;;9.40;95.40;;;;;;5091444;28;20401;-90
2023/01/02 11:37:55;;;;;;;8.55;1.80;;;9.50;95.20;;;;;;5109406;28;20823;-90
2023/01/02 11:40:27;;;;;;;8.70;1.73;;;9.60;95.00;;;;;;5094328;27;20499;-91
2023/01/02 11:45:41;;;;;;;6.22;1.48;;;9.80;95.00;;;;;;5129803;27;20426;-91
2023/01/02 11:48:14;;;;;;;8.27;1.17;;;9.60;95.00;;;;;;5111429;27;20415;-89
2023/01/02 11:50:42;;;;;;;7.63;1.33;;;9.50;94.50;;;;;;5112429;27;20900;-89
2023/01/02 11:53:11;;;;;;;6.65;0.88;;;9.50;94.60;;;;;;5111975;27;20429;-88
2023/01/02 11:55:58;;;;;;;8.13;0.95;;;9.40;94.40;;;;;;5128462;27;20414;-90
2023/01/02 11:58:35;;;;;;;8.23;0.70;;;9.40;94.80;;;;;;5112464;27;20398;-90
2023/01/02 12:01:12;;;;;;;7.25;0.82;;;9.60;95.00;;;;;;5111038;27;20414;-89
2023/01/02 12:03:39;;;;;;;6.25;0.80;;;9.40;94.90;;;;;;5112054;27;20792;-88
2023/01/02 12:06:45;;;;;;;7.93;0.82;;;9.30;94.70;;;;;;5128248;27;20864;-88
2023/01/02 12:09:14;;;;;;;7.93;0.68;;;9.30;94.80;;;;;;5097853;27;20879;-89
2023/01/02 12:11:40;;;;;;;11.25;1.00;;;9.30;94.90;;;;;;5112086;27;20819;-89
2023/01/02 12:14:27;;;;;;;8.45;0.70;;;9.30;94.80;;;;;;5127262;27;20438;-88
2023/01/02 12:17:32;;;;;;;9.38;0.88;;;9.30;94.60;;;;;;5112258;27;20451;-89
2023/01/02 12:20:00;;;;;;;8.53;0.70;;;9.40;94.60;;;;;;5111624;27;20442;-89
2023/01/02 12:22:34;;;;;;;8.82;0.80;;;9.40;94.50;;;;;;5127468;27;20445;-89
2023/01/02 12:25:29;;;;;;;6.80;0.70;;;9.40;94.40;;;;;;5111568;27;20517;-89
2023/01/02 12:28:02;;;;;;;11.95;1.20;;;9.40;94.60;;;;;;5102399;27;20402;-89
2023/01/02 12:30:33;;;;;;;8.63;0.70;;;9.40;94.60;;;;;;5111087;27;20402;-91
2023/01/02 12:32:58;;;;;;;8.93;0.80;;;9.50;94.60;;;;;;5128672;27;20399;-89
2023/01/02 12:35:47;;;;;;;8.67;0.70;;;9.70;94.30;;;;;;5111168;27;20422;-90
2023/01/02 12:38:25;;;;;;;9.40;0.98;;;9.40;94.50;;;;;;5112349;27;20765;-90
2023/01/02 12:41:09;;;;;;;9.65;1.15;;;9.50;94.70;;;;;;5111309;27;20420;-90
2023/01/02 12:44:00;;;;;;;8.20;1.27;;;9.50;94.40;;;;;;5113561;27;20450;-90
2023/01/02 12:46:49;;;;;;;9.60;1.08;;;9.40;94.60;;;;;;5131055;27;20416;-88
2023/01/02 12:49:30;;;;;;;7.80;0.70;;;9.50;94.80;;;;;;5113848;27;20923;-91
2023/01/02 12:52:21;;;;;;;9.60;0.98;;;9.40;94.40;;;;;;5130161;27;20491;-89
2023/01/02 12:55:14;;;;;;;10.82;1.02;;;9.50;94.50;;;;;;5114191;27;20413;-90
2023/01/02 12:58:00;;;;;;;9.23;1.08;;;9.40;94.60;;;;;;5113603;27;20404;-91
2023/01/02 13:00:57;;;;;;;8.05;1.02;;;9.50;94.40;;;;;;5113280;27;20401;-90
2023/01/02 13:03:31;;;;;;;10.23;1.10;;;9.40;94.50;;;;;;5113738;27;20405;-91